createdAt,value
2023-05-10T00:00:11.087Z,12.91
2023-05-10T00:03:19.380Z,12.78
2023-05-10T00:06:21.705Z,12.75
2023-05-10T00:09:23.992Z,12.77
2023-05-10T00:12:26.283Z,12.69
2023-05-10T00:15:33.917Z,12.68
2023-05-10T00:18:36.226Z,12.62
2023-05-10T00:21:38.449Z,12.59
2023-05-10T00:24:40.903Z,12.53
2023-05-10T00:27:45.356Z,12.49
2023-05-10T00:30:50.354Z,12.35
2023-05-10T00:33:55.453Z,12.35
2023-05-10T00:37:04.994Z,12.35
2023-05-10T00:40:12.964Z,12.22
2023-05-10T00:43:16.913Z,12.12
2023-05-10T00:46:19.513Z,12.03
2023-05-10T00:49:22.242Z,11.88
2023-05-10T00:52:31.131Z,11.82
2023-05-10T00:55:37.411Z,11.74
2023-05-10T00:58:42.732Z,11.74
2023-05-10T01:01:50.743Z,11.80
2023-05-10T01:04:53.341Z,11.64
2023-05-10T01:07:55.722Z,11.59
2023-05-10T01:11:00.650Z,11.51
2023-05-10T01:14:04.845Z,11.50
2023-05-10T01:17:08.641Z,11.56
2023-05-10T01:20:12.897Z,11.58
2023-05-10T01:23:38.690Z,11.62
2023-05-10T01:26:50.133Z,11.60
2023-05-10T01:30:21.854Z,11.73
2023-05-10T01:33:25.820Z,11.76
2023-05-10T01:36:31.861Z,11.67
2023-05-10T01:39:34.045Z,11.72
2023-05-10T01:42:51.077Z,11.66
2023-05-10T01:46:01.024Z,11.72
2023-05-10T01:49:08.598Z,11.76
2023-05-10T01:52:16.891Z,11.86
2023-05-10T01:55:24.434Z,11.78
2023-05-10T01:58:31.512Z,11.84
2023-05-10T02:01:35.163Z,11.79
2023-05-10T02:04:39.592Z,11.77
2023-05-10T02:07:45.735Z,11.88
2023-05-10T02:10:50.214Z,11.87
2023-05-10T02:13:53.948Z,12.00
2023-05-10T02:17:03.002Z,12.09
2023-05-10T02:20:08.822Z,12.10
2023-05-10T02:23:14.416Z,12.12
2023-05-10T02:26:19.966Z,12.19
2023-05-10T02:29:24.633Z,12.23
2023-05-10T02:32:28.927Z,12.26
2023-05-10T02:35:34.530Z,12.08
2023-05-10T02:38:42.706Z,12.22
2023-05-10T02:41:53.430Z,12.16
2023-05-10T02:45:02.705Z,12.25
2023-05-10T02:48:05.970Z,12.25
2023-05-10T02:51:09.168Z,12.18
2023-05-10T02:54:21.323Z,12.08
2023-05-10T02:57:28.658Z,12.13
2023-05-10T03:00:31.837Z,12.07
2023-05-10T03:03:34.386Z,12.14
2023-05-10T03:06:36.919Z,12.06
2023-05-10T03:09:43.513Z,12.11
2023-05-10T03:13:11.376Z,12.02
2023-05-10T03:16:30.344Z,11.92
2023-05-10T03:19:52.530Z,11.98
2023-05-10T03:23:02.825Z,12.00
2023-05-10T03:26:06.997Z,11.91
2023-05-10T03:29:10.146Z,11.76
2023-05-10T03:32:12.536Z,11.84
2023-05-10T03:35:15.295Z,11.77
2023-05-10T03:38:18.503Z,11.83
2023-05-10T03:41:22.326Z,11.86
2023-05-10T03:44:24.610Z,11.74
2023-05-10T03:47:30.807Z,11.85
2023-05-10T03:50:38.476Z,11.82
2023-05-10T03:53:43.622Z,11.67
2023-05-10T03:56:47.575Z,11.92
2023-05-10T03:59:51.160Z,11.89
2023-05-10T04:02:53.668Z,11.81
2023-05-10T04:06:03.332Z,11.88
2023-05-10T04:09:05.706Z,11.97
2023-05-10T04:12:10.755Z,11.92
2023-05-10T04:15:13.287Z,12.14
2023-05-10T04:18:15.557Z,12.02
2023-05-10T04:21:17.845Z,12.00
2023-05-10T04:24:20.192Z,11.99
2023-05-10T04:27:22.552Z,11.98
2023-05-10T04:30:26.103Z,12.00
2023-05-10T04:33:30.714Z,11.89
2023-05-10T04:36:36.861Z,11.92
2023-05-10T04:39:42.442Z,12.07
2023-05-10T04:42:45.190Z,12.31
2023-05-10T04:45:51.279Z,12.64
2023-05-10T04:48:53.824Z,12.86
2023-05-10T04:51:56.542Z,13.23
2023-05-10T04:55:01.154Z,13.48
2023-05-10T04:58:05.971Z,13.59
2023-05-10T05:01:09.437Z,13.53
2023-05-10T05:04:11.971Z,13.27
2023-05-10T05:07:15.907Z,13.49
2023-05-10T05:10:20.734Z,13.69
2023-05-10T05:13:27.752Z,13.87
2023-05-10T05:16:32.074Z,13.71
2023-05-10T05:19:34.506Z,13.07
2023-05-10T05:22:38.268Z,13.31
2023-05-10T05:25:40.528Z,13.37
2023-05-10T05:28:45.218Z,13.22
2023-05-10T05:31:47.522Z,13.45
2023-05-10T05:34:53.162Z,13.64
2023-05-10T05:37:55.452Z,13.71
2023-05-10T05:40:57.868Z,14.19
2023-05-10T05:44:02.832Z,14.63
2023-05-10T05:47:05.255Z,14.68
2023-05-10T05:50:07.966Z,14.79
2023-05-10T05:53:10.876Z,14.43
2023-05-10T05:56:15.420Z,14.93
2023-05-10T05:59:20.051Z,14.87
2023-05-10T06:02:22.450Z,15.02
2023-05-10T06:05:24.735Z,15.42
2023-05-10T06:08:31.642Z,15.91
2023-05-10T06:11:36.256Z,16.10
2023-05-10T06:14:40.863Z,16.05
2023-05-10T06:17:50.338Z,16.01
2023-05-10T06:20:52.786Z,15.77
2023-05-10T06:23:57.848Z,14.72
2023-05-10T06:27:01.388Z,14.54
2023-05-10T06:30:12.487Z,15.29
2023-05-10T06:33:17.816Z,15.86
2023-05-10T06:36:20.111Z,15.60
2023-05-10T06:39:22.522Z,15.78
2023-05-10T06:42:26.444Z,15.68
2023-05-10T06:45:30.886Z,15.80
2023-05-10T06:48:35.754Z,16.48
2023-05-10T06:51:38.205Z,16.53
2023-05-10T06:54:40.465Z,16.84
2023-05-10T06:57:43.024Z,17.90
2023-05-10T07:00:50.189Z,17.76
2023-05-10T07:03:54.214Z,17.74
2023-05-10T07:06:58.895Z,18.61
2023-05-10T07:10:03.619Z,18.81
2023-05-10T07:13:06.082Z,19.43
2023-05-10T07:16:13.450Z,16.55
2023-05-10T07:19:15.885Z,16.72
2023-05-10T07:22:18.569Z,16.78
2023-05-10T07:25:23.041Z,16.48
2023-05-10T07:28:30.079Z,17.86
2023-05-10T07:31:32.471Z,17.39
2023-05-10T07:34:35.020Z,17.17
2023-05-10T07:37:40.585Z,16.83
2023-05-10T07:40:45.374Z,17.57
2023-05-10T07:43:54.900Z,18.08
2023-05-10T07:47:02.049Z,18.92
2023-05-10T07:50:07.348Z,19.56
2023-05-10T07:53:11.878Z,17.59
2023-05-10T07:56:30.710Z,17.39
2023-05-10T07:59:34.055Z,17.60
2023-05-10T08:02:38.660Z,17.22
2023-05-10T08:05:41.545Z,18.19
2023-05-10T08:08:46.622Z,17.76
2023-05-10T08:11:48.814Z,18.70
2023-05-10T08:14:51.342Z,18.35
2023-05-10T08:17:53.797Z,18.56
2023-05-10T08:20:58.415Z,17.69
2023-05-10T08:24:00.732Z,17.48
2023-05-10T08:27:03.204Z,17.40
2023-05-10T08:30:06.202Z,18.03
2023-05-10T08:33:08.595Z,18.45
2023-05-10T08:36:16.209Z,19.86
2023-05-10T08:39:29.701Z,19.72
2023-05-10T08:42:37.165Z,17.72
2023-05-10T08:45:43.830Z,17.41
2023-05-10T08:48:49.778Z,18.11
2023-05-10T08:51:56.907Z,18.40
2023-05-10T08:55:01.932Z,17.87
2023-05-10T08:58:07.701Z,18.24
2023-05-10T09:01:13.734Z,18.09
2023-05-10T09:04:18.760Z,18.33
2023-05-10T09:07:21.179Z,17.90
2023-05-10T09:10:27.018Z,17.15
2023-05-10T09:13:29.614Z,17.94
2023-05-10T09:16:31.942Z,17.87
2023-05-10T09:19:36.520Z,18.35
2023-05-10T09:22:41.197Z,17.59
2023-05-10T09:25:43.649Z,17.25
2023-05-10T09:28:59.851Z,17.54
2023-05-10T09:32:05.257Z,17.13
2023-05-10T09:35:16.655Z,18.05
2023-05-10T09:38:19.266Z,17.87
2023-05-10T09:41:24.510Z,17.92
2023-05-10T09:44:27.480Z,18.47
2023-05-10T09:47:38.454Z,18.54
2023-05-10T09:50:41.366Z,18.49
2023-05-10T09:53:44.506Z,18.47
2023-05-10T09:56:49.614Z,18.01
2023-05-10T09:59:55.301Z,17.56
2023-05-10T10:02:59.635Z,17.90
2023-05-10T10:06:01.961Z,18.45
2023-05-10T10:09:07.064Z,18.26
2023-05-10T10:12:11.617Z,17.68
2023-05-10T10:15:17.091Z,18.10
2023-05-10T10:18:28.069Z,18.37
2023-05-10T10:21:30.508Z,17.82
2023-05-10T10:24:35.179Z,17.85
2023-05-10T10:27:43.427Z,18.11
2023-05-10T10:30:52.377Z,18.04
2023-05-10T10:34:08.658Z,17.82
2023-05-10T10:37:11.244Z,18.09
2023-05-10T10:40:27.860Z,18.41
2023-05-10T10:43:32.628Z,18.47
2023-05-10T10:46:35.596Z,18.40
2023-05-10T10:50:01.183Z,18.39
2023-05-10T10:53:13.140Z,18.09
2023-05-10T10:56:24.738Z,18.38
2023-05-10T10:59:31.453Z,18.12
2023-05-10T11:02:49.965Z,18.42
2023-05-10T11:06:02.855Z,18.33
2023-05-10T11:09:09.791Z,18.18
2023-05-10T11:12:12.161Z,18.14
2023-05-10T11:15:14.711Z,18.29
2023-05-10T11:18:17.886Z,18.25
2023-05-10T11:21:25.485Z,17.89
2023-05-10T11:24:29.181Z,17.96
2023-05-10T11:27:38.634Z,17.89
2023-05-10T11:30:48.132Z,18.06
2023-05-10T11:33:55.307Z,18.34
2023-05-10T11:36:58.603Z,18.36
2023-05-10T11:40:01.416Z,17.90
2023-05-10T11:43:04.749Z,18.38
2023-05-10T11:46:13.020Z,18.06
2023-05-10T11:49:18.769Z,18.23
2023-05-10T11:52:23.367Z,18.29
2023-05-10T11:55:25.899Z,18.35
2023-05-10T11:58:28.387Z,18.36
2023-05-10T12:01:37.150Z,18.42
2023-05-10T12:04:39.629Z,18.35
2023-05-10T12:07:41.941Z,18.60
2023-05-10T12:10:46.526Z,18.51
2023-05-10T12:13:51.545Z,18.51
2023-05-10T12:16:53.893Z,18.37
2023-05-10T12:20:16.152Z,18.52
2023-05-10T12:23:18.869Z,18.38
2023-05-10T12:26:29.821Z,18.59
2023-05-10T12:29:35.724Z,18.57
2023-05-10T12:32:44.282Z,18.67
2023-05-10T12:35:57.381Z,18.70
2023-05-10T12:39:05.939Z,18.40
2023-05-10T12:42:10.632Z,18.22
2023-05-10T12:45:18.814Z,18.24
2023-05-10T12:48:21.366Z,18.26
2023-05-10T12:51:26.426Z,18.26
2023-05-10T12:54:28.927Z,18.63
2023-05-10T12:57:31.666Z,18.42
2023-05-10T13:00:34.028Z,18.18
2023-05-10T13:03:41.478Z,18.45
2023-05-10T13:06:43.957Z,18.53
2023-05-10T13:09:46.248Z,18.60
2023-05-10T13:12:48.449Z,18.49
2023-05-10T13:15:53.153Z,18.84
2023-05-10T13:18:55.546Z,18.75
2023-05-10T13:22:02.993Z,18.64
2023-05-10T13:25:05.770Z,18.53
2023-05-10T13:28:10.636Z,18.70
2023-05-10T13:31:17.669Z,18.55
2023-05-10T13:34:22.704Z,18.56
2023-05-10T13:37:25.015Z,18.86
2023-05-10T13:40:27.318Z,18.86
2023-05-10T13:43:30.478Z,18.78
2023-05-10T13:46:35.004Z,18.56
2023-05-10T13:49:41.961Z,18.56
2023-05-10T13:52:44.301Z,18.91
2023-05-10T13:55:48.856Z,18.62
2023-05-10T13:58:51.193Z,18.92
2023-05-10T14:01:53.651Z,19.01
2023-05-10T14:04:58.041Z,18.73
2023-05-10T14:08:02.483Z,18.78
2023-05-10T14:11:09.472Z,18.86
2023-05-10T14:14:11.776Z,18.87
2023-05-10T14:17:18.531Z,18.93
2023-05-10T14:20:20.843Z,19.03
2023-05-10T14:23:26.799Z,19.01
2023-05-10T14:26:31.665Z,18.72
2023-05-10T14:29:33.996Z,18.64
2023-05-10T14:32:37.672Z,18.45
2023-05-10T14:35:40.789Z,18.54
2023-05-10T14:38:50.481Z,18.69
2023-05-10T14:41:55.504Z,18.83
2023-05-10T14:44:57.953Z,18.92
2023-05-10T14:48:05.487Z,18.84
2023-05-10T14:51:10.297Z,18.65
2023-05-10T14:54:15.296Z,18.77
2023-05-10T14:57:17.714Z,18.89
2023-05-10T15:00:21.787Z,18.70
2023-05-10T15:03:27.208Z,18.44
2023-05-10T15:06:36.173Z,18.12
2023-05-10T15:09:40.889Z,18.17
2023-05-10T15:12:45.759Z,18.24
2023-05-10T15:15:50.860Z,18.22
2023-05-10T15:18:58.759Z,18.19
2023-05-10T15:22:01.256Z,18.31
2023-05-10T15:25:05.743Z,18.36
2023-05-10T15:28:12.716Z,18.50
2023-05-10T15:31:17.076Z,18.76
2023-05-10T15:34:22.402Z,18.72
2023-05-10T15:37:25.453Z,18.49
2023-05-10T15:40:27.730Z,18.58
2023-05-10T15:43:30.003Z,18.66
2023-05-10T15:46:32.315Z,18.41
2023-05-10T15:49:37.048Z,18.40
2023-05-10T15:52:39.492Z,18.33
2023-05-10T15:55:41.758Z,18.35
2023-05-10T15:58:46.544Z,18.29
2023-05-10T16:01:51.979Z,18.20
2023-05-10T16:04:54.218Z,18.27
2023-05-10T16:07:56.910Z,18.28
2023-05-10T16:11:01.589Z,18.33
2023-05-10T16:14:07.302Z,18.40
2023-05-10T16:17:10.006Z,18.40
2023-05-10T16:20:14.755Z,18.40
2023-05-10T16:23:19.744Z,18.52
2023-05-10T16:26:24.410Z,18.39
2023-05-10T16:29:29.061Z,18.45
2023-05-10T16:32:31.417Z,18.42
2023-05-10T16:35:36.001Z,18.30
2023-05-10T16:38:38.489Z,18.30
2023-05-10T16:41:43.778Z,18.22
2023-05-10T16:44:48.369Z,18.15
2023-05-10T16:47:50.586Z,18.05
2023-05-10T16:50:52.888Z,18.08
2023-05-10T16:53:56.094Z,18.06
2023-05-10T16:56:58.369Z,18.08
2023-05-10T17:00:02.713Z,17.89
2023-05-10T17:03:07.769Z,17.81
2023-05-10T17:06:14.060Z,17.81
2023-05-10T17:09:17.578Z,17.76
2023-05-10T17:12:28.139Z,17.71
2023-05-10T17:15:32.664Z,17.72
2023-05-10T17:18:39.711Z,17.67
2023-05-10T17:21:42.065Z,17.51
2023-05-10T17:24:45.859Z,17.53
2023-05-10T17:27:53.216Z,17.49
2023-05-10T17:30:58.534Z,17.50
2023-05-10T17:34:05.443Z,17.51
2023-05-10T17:37:12.174Z,17.36
2023-05-10T17:40:18.248Z,17.44
2023-05-10T17:43:21.514Z,17.40
2023-05-10T17:46:26.581Z,17.30
2023-05-10T17:49:28.909Z,17.30
2023-05-10T17:52:33.920Z,17.26
2023-05-10T17:55:39.280Z,17.25
2023-05-10T17:58:41.845Z,17.21
2023-05-10T18:01:46.573Z,17.16
2023-05-10T18:04:49.531Z,17.06
2023-05-10T18:07:54.349Z,17.02
2023-05-10T18:10:59.270Z,16.99
2023-05-10T18:14:04.924Z,16.96
2023-05-10T18:17:07.837Z,16.83
2023-05-10T18:20:10.707Z,16.86
2023-05-10T18:23:13.301Z,16.77
2023-05-10T18:26:18.599Z,16.75
2023-05-10T18:29:24.295Z,16.72
2023-05-10T18:32:29.166Z,16.66
2023-05-10T18:35:36.496Z,16.61
2023-05-10T18:38:41.320Z,16.54
2023-05-10T18:41:44.727Z,16.60
2023-05-10T18:44:49.525Z,16.53
2023-05-10T18:47:53.405Z,16.52
2023-05-10T18:50:55.791Z,16.47
2023-05-10T18:54:03.543Z,16.47
2023-05-10T18:57:08.305Z,16.41
2023-05-10T19:00:14.041Z,16.37
2023-05-10T19:03:21.214Z,16.29
2023-05-10T19:06:23.548Z,16.29
2023-05-10T19:09:27.761Z,16.23
2023-05-10T19:12:30.578Z,16.21
2023-05-10T19:15:37.469Z,16.23
2023-05-10T19:18:44.134Z,16.17
2023-05-10T19:21:48.358Z,16.21
2023-05-10T19:24:50.678Z,16.20
2023-05-10T19:27:58.000Z,16.19
2023-05-10T19:31:00.452Z,16.21
2023-05-10T19:34:04.217Z,16.18
2023-05-10T19:37:08.801Z,16.13
2023-05-10T19:40:11.476Z,16.18
2023-05-10T19:43:13.851Z,16.12
2023-05-10T19:46:17.915Z,16.00
2023-05-10T19:49:27.392Z,16.04
2023-05-10T19:52:32.234Z,15.97
2023-05-10T19:55:37.359Z,15.91
2023-05-10T19:58:44.913Z,15.87
2023-05-10T20:01:47.213Z,15.90
2023-05-10T20:04:50.077Z,15.84
2023-05-10T20:07:53.471Z,15.84
2023-05-10T20:10:59.029Z,15.75
2023-05-10T20:14:08.404Z,15.71
2023-05-10T20:17:10.833Z,15.74
2023-05-10T20:20:17.164Z,15.71
2023-05-10T20:23:19.588Z,15.70
2023-05-10T20:26:22.003Z,15.73
2023-05-10T20:29:24.254Z,15.77
2023-05-10T20:32:29.104Z,15.71
2023-05-10T20:35:34.276Z,15.65
2023-05-10T20:38:36.878Z,15.63
2023-05-10T20:41:42.017Z,15.66
2023-05-10T20:44:44.249Z,15.67
2023-05-10T20:47:52.365Z,15.67
2023-05-10T20:50:57.214Z,15.68
2023-05-10T20:54:02.565Z,15.64
2023-05-10T20:57:04.998Z,15.62
2023-05-10T21:00:11.012Z,15.55
2023-05-10T21:03:18.196Z,15.60
2023-05-10T21:06:20.526Z,15.61
2023-05-10T21:09:25.307Z,15.54
2023-05-10T21:12:27.520Z,15.55
2023-05-10T21:15:29.794Z,15.47
2023-05-10T21:18:34.344Z,15.51
2023-05-10T21:21:36.599Z,15.49
2023-05-10T21:24:39.235Z,15.44
2023-05-10T21:27:47.252Z,15.52
2023-05-10T21:30:49.970Z,15.47
2023-05-10T21:33:52.200Z,15.39
2023-05-10T21:36:54.626Z,15.41
2023-05-10T21:39:57.012Z,15.36
2023-05-10T21:42:59.441Z,15.38
2023-05-10T21:46:04.726Z,15.29
2023-05-10T21:49:09.649Z,15.23
2023-05-10T21:52:16.472Z,15.25
2023-05-10T21:55:26.522Z,15.30
2023-05-10T21:58:31.431Z,15.23
2023-05-10T22:01:36.083Z,15.24
2023-05-10T22:04:38.405Z,15.18
2023-05-10T22:07:40.709Z,15.21
2023-05-10T22:10:43.145Z,15.25
2023-05-10T22:13:47.677Z,15.19
2023-05-10T22:16:49.977Z,15.18
2023-05-10T22:19:52.356Z,15.07
2023-05-10T22:22:55.188Z,15.04
2023-05-10T22:26:04.159Z,15.02
2023-05-10T22:29:09.260Z,14.95
2023-05-10T22:32:11.522Z,14.90
2023-05-10T22:35:13.825Z,14.87
2023-05-10T22:38:16.265Z,14.82
2023-05-10T22:41:18.662Z,14.82
2023-05-10T22:44:20.943Z,14.76
2023-05-10T22:47:23.176Z,14.67
2023-05-10T22:50:25.482Z,14.64
2023-05-10T22:53:33.396Z,14.65
2023-05-10T22:56:35.874Z,14.47
2023-05-10T22:59:38.166Z,14.27
2023-05-10T23:02:43.199Z,14.32
2023-05-10T23:05:45.497Z,14.25
2023-05-10T23:08:48.150Z,14.16
2023-05-10T23:11:53.395Z,14.12
2023-05-10T23:14:56.568Z,14.12
2023-05-10T23:18:01.785Z,14.04
2023-05-10T23:21:04.208Z,13.99
2023-05-10T23:24:11.685Z,13.99
2023-05-10T23:27:16.918Z,14.06
2023-05-10T23:30:19.560Z,14.14
2023-05-10T23:33:22.398Z,14.22
2023-05-10T23:36:24.625Z,14.24
2023-05-10T23:39:29.121Z,14.29
2023-05-10T23:42:34.950Z,14.30
2023-05-10T23:45:37.264Z,14.16
2023-05-10T23:48:39.886Z,14.19
2023-05-10T23:51:42.237Z,14.27
2023-05-10T23:54:45.959Z,14.29
2023-05-10T23:57:48.323Z,14.30
